メインページ
METAR-TAF:

METAR-TAF

空港 :

アリカ, チリ

緯度: 18-20S, 経度: 070-20W, 海抜: 58m

現時点の気象観測

当レポートは36分前の09:00(UTC)に作成
北東の風 3kt
気温 21°C
湿度 64%
気圧 1014 hPa
視程10km以上
高度3500ftの曇り

METAR: SCAR 190900Z 05003KT 9999 OVC035 21/14 Q1014

時間: 06:36 (09:36 UTC)

予報

当レポートは5時間1分前の04:35(UTC)に作成
予報は19日の 06時(UTC)から 20日の 06時(UTC)まで有効
の風 4kt
視程10km以上
1,500メートル以下は雲なし、積乱雲なし
19日の 14時(UTC)から 19日の 16時(UTC)まで徐々に
南西の風 12kt
19日の 22時(UTC)から 20日の 00時(UTC)まで徐々に
の風 4kt

TAF: SCAR 190435Z 1906/2006 18004KT CAVOK TN19/1906Z TX25/1918Z BECMG 1914/1916 23012KT BECMG 1922/2000 19004KT

4,000以上の空港の気象観測と天気予報(METAR報とTAF報)

利用可能な観測所は地図上に黄色い丸と赤い丸で示す。

丸の上にカーソルを重ねると観測所名を参照できる。

次にクリックすると気象観測と天気予報を参照できる。

マップの切り替え:黒色「×」印の緑ボタンをクリックして拡大、「-」印の緑ボタンをクリックして縮小、緑色の三角印をクリックして隣りの地図に切り替え


METAR-TAF: